sensor_id;sensor_type;location;lat;lon;timestamp;P1;durP1;ratioP1;P2;durP2;ratioP2
65757;SDS011;52495;52.208;5.158;2023-07-02T00:01:44;13.40;;;5.25;;
65757;SDS011;52495;52.208;5.158;2023-07-02T00:04:12;14.38;;;6.38;;
65757;SDS011;52495;52.208;5.158;2023-07-02T00:06:41;12.40;;;5.13;;
65757;SDS011;52495;52.208;5.158;2023-07-02T00:09:08;11.75;;;5.65;;
65757;SDS011;52495;52.208;5.158;2023-07-02T00:11:36;16.95;;;6.03;;
65757;SDS011;52495;52.208;5.158;2023-07-02T00:14:04;15.88;;;6.10;;
65757;SDS011;52495;52.208;5.158;2023-07-02T00:16:30;14.40;;;6.57;;
65757;SDS011;52495;52.208;5.158;2023-07-02T00:18:58;17.60;;;6.40;;
65757;SDS011;52495;52.208;5.158;2023-07-02T00:21:25;18.27;;;7.05;;
65757;SDS011;52495;52.208;5.158;2023-07-02T00:23:53;16.65;;;6.88;;
65757;SDS011;52495;52.208;5.158;2023-07-02T00:26:22;17.48;;;6.82;;
65757;SDS011;52495;52.208;5.158;2023-07-02T00:28:52;16.20;;;7.32;;
65757;SDS011;52495;52.208;5.158;2023-07-02T00:31:20;16.13;;;7.85;;
65757;SDS011;52495;52.208;5.158;2023-07-02T00:33:47;18.55;;;6.53;;
65757;SDS011;52495;52.208;5.158;2023-07-02T00:36:14;16.60;;;6.95;;
65757;SDS011;52495;52.208;5.158;2023-07-02T00:38:41;18.55;;;7.22;;
65757;SDS011;52495;52.208;5.158;2023-07-02T00:41:08;15.18;;;6.45;;
65757;SDS011;52495;52.208;5.158;2023-07-02T00:43:35;18.40;;;7.72;;
65757;SDS011;52495;52.208;5.158;2023-07-02T00:46:06;17.88;;;7.10;;
65757;SDS011;52495;52.208;5.158;2023-07-02T00:48:33;15.55;;;7.20;;
65757;SDS011;52495;52.208;5.158;2023-07-02T00:50:59;15.98;;;6.75;;
65757;SDS011;52495;52.208;5.158;2023-07-02T00:53:26;18.80;;;8.15;;
65757;SDS011;52495;52.208;5.158;2023-07-02T00:55:53;18.83;;;7.72;;
65757;SDS011;52495;52.208;5.158;2023-07-02T00:58:20;16.58;;;7.00;;
65757;SDS011;52495;52.208;5.158;2023-07-02T01:00:47;19.40;;;7.05;;
65757;SDS011;52495;52.208;5.158;2023-07-02T01:03:15;17.63;;;7.53;;
65757;SDS011;52495;52.208;5.158;2023-07-02T01:05:42;18.13;;;7.13;;
65757;SDS011;52495;52.208;5.158;2023-07-02T01:08:09;20.15;;;7.95;;
65757;SDS011;52495;52.208;5.158;2023-07-02T01:10:37;20.52;;;8.45;;
65757;SDS011;52495;52.208;5.158;2023-07-02T01:13:05;15.18;;;7.32;;
65757;SDS011;52495;52.208;5.158;2023-07-02T01:15:36;21.33;;;7.93;;
65757;SDS011;52495;52.208;5.158;2023-07-02T01:18:03;21.67;;;8.82;;
65757;SDS011;52495;52.208;5.158;2023-07-02T01:20:33;15.18;;;5.95;;
65757;SDS011;52495;52.208;5.158;2023-07-02T01:23:02;20.23;;;7.88;;
65757;SDS011;52495;52.208;5.158;2023-07-02T01:25:30;20.50;;;7.10;;
65757;SDS011;52495;52.208;5.158;2023-07-02T01:28:01;22.27;;;7.90;;
65757;SDS011;52495;52.208;5.158;2023-07-02T01:30:28;23.48;;;8.75;;
65757;SDS011;52495;52.208;5.158;2023-07-02T01:32:55;17.60;;;7.13;;
65757;SDS011;52495;52.208;5.158;2023-07-02T01:35:22;18.08;;;7.00;;
65757;SDS011;52495;52.208;5.158;2023-07-02T01:37:50;19.63;;;7.55;;
65757;SDS011;52495;52.208;5.158;2023-07-02T01:40:17;24.10;;;9.13;;
65757;SDS011;52495;52.208;5.158;2023-07-02T01:42:44;17.02;;;8.45;;
65757;SDS011;52495;52.208;5.158;2023-07-02T01:45:10;20.58;;;7.45;;
65757;SDS011;52495;52.208;5.158;2023-07-02T01:47:37;17.38;;;6.88;;
65757;SDS011;52495;52.208;5.158;2023-07-02T01:50:05;20.05;;;7.95;;
65757;SDS011;52495;52.208;5.158;2023-07-02T01:52:33;17.33;;;7.90;;
65757;SDS011;52495;52.208;5.158;2023-07-02T01:55:02;18.90;;;7.18;;
65757;SDS011;52495;52.208;5.158;2023-07-02T01:57:30;18.23;;;7.03;;
65757;SDS011;52495;52.208;5.158;2023-07-02T01:59:57;19.73;;;7.47;;
65757;SDS011;52495;52.208;5.158;2023-07-02T02:02:24;15.18;;;6.85;;
65757;SDS011;52495;52.208;5.158;2023-07-02T02:04:51;16.67;;;6.82;;
65757;SDS011;52495;52.208;5.158;2023-07-02T02:07:19;20.60;;;8.75;;
65757;SDS011;52495;52.208;5.158;2023-07-02T02:09:45;20.13;;;7.55;;
65757;SDS011;52495;52.208;5.158;2023-07-02T02:12:13;17.25;;;7.30;;
65757;SDS011;52495;52.208;5.158;2023-07-02T02:14:40;23.35;;;7.70;;
65757;SDS011;52495;52.208;5.158;2023-07-02T02:17:07;20.27;;;7.53;;
65757;SDS011;52495;52.208;5.158;2023-07-02T02:19:34;22.40;;;7.78;;
65757;SDS011;52495;52.208;5.158;2023-07-02T02:22:01;20.15;;;7.53;;
65757;SDS011;52495;52.208;5.158;2023-07-02T02:24:28;19.90;;;7.40;;
65757;SDS011;52495;52.208;5.158;2023-07-02T02:26:55;18.85;;;6.68;;
65757;SDS011;52495;52.208;5.158;2023-07-02T02:29:23;19.15;;;7.47;;
65757;SDS011;52495;52.208;5.158;2023-07-02T02:31:50;14.15;;;7.35;;
65757;SDS011;52495;52.208;5.158;2023-07-02T02:34:17;17.83;;;7.63;;
65757;SDS011;52495;52.208;5.158;2023-07-02T02:36:44;20.92;;;8.52;;
65757;SDS011;52495;52.208;5.158;2023-07-02T02:39:12;21.52;;;7.18;;
65757;SDS011;52495;52.208;5.158;2023-07-02T02:41:39;18.77;;;6.95;;
65757;SDS011;52495;52.208;5.158;2023-07-02T02:44:06;17.52;;;7.32;;
65757;SDS011;52495;52.208;5.158;2023-07-02T02:46:34;16.52;;;7.03;;
65757;SDS011;52495;52.208;5.158;2023-07-02T02:49:01;16.50;;;7.05;;
65757;SDS011;52495;52.208;5.158;2023-07-02T02:51:28;23.23;;;8.05;;
65757;SDS011;52495;52.208;5.158;2023-07-02T02:53:55;20.45;;;7.60;;
65757;SDS011;52495;52.208;5.158;2023-07-02T02:56:21;18.48;;;8.45;;
65757;SDS011;52495;52.208;5.158;2023-07-02T02:58:48;21.17;;;8.25;;
65757;SDS011;52495;52.208;5.158;2023-07-02T03:01:15;22.10;;;7.28;;
65757;SDS011;52495;52.208;5.158;2023-07-02T03:03:43;18.90;;;7.35;;
65757;SDS011;52495;52.208;5.158;2023-07-02T03:06:11;18.42;;;7.97;;
65757;SDS011;52495;52.208;5.158;2023-07-02T03:08:40;18.75;;;7.18;;
65757;SDS011;52495;52.208;5.158;2023-07-02T03:11:07;20.27;;;7.55;;
65757;SDS011;52495;52.208;5.158;2023-07-02T03:13:33;17.90;;;7.43;;
65757;SDS011;52495;52.208;5.158;2023-07-02T03:16:00;22.75;;;8.57;;
65757;SDS011;52495;52.208;5.158;2023-07-02T03:18:27;22.55;;;7.45;;
65757;SDS011;52495;52.208;5.158;2023-07-02T03:20:55;21.02;;;8.02;;
65757;SDS011;52495;52.208;5.158;2023-07-02T03:23:22;21.98;;;7.45;;
65757;SDS011;52495;52.208;5.158;2023-07-02T03:25:48;23.30;;;7.68;;
65757;SDS011;52495;52.208;5.158;2023-07-02T03:28:15;17.90;;;7.78;;
65757;SDS011;52495;52.208;5.158;2023-07-02T03:30:42;16.95;;;7.07;;
65757;SDS011;52495;52.208;5.158;2023-07-02T03:33:09;22.17;;;7.95;;
65757;SDS011;52495;52.208;5.158;2023-07-02T03:35:36;19.98;;;7.63;;
65757;SDS011;52495;52.208;5.158;2023-07-02T03:38:04;20.10;;;7.95;;
65757;SDS011;52495;52.208;5.158;2023-07-02T03:40:31;19.05;;;7.93;;
65757;SDS011;52495;52.208;5.158;2023-07-02T03:42:58;19.90;;;7.85;;
65757;SDS011;52495;52.208;5.158;2023-07-02T03:45:25;18.05;;;8.38;;
65757;SDS011;52495;52.208;5.158;2023-07-02T03:47:51;29.90;;;8.65;;
65757;SDS011;52495;52.208;5.158;2023-07-02T03:50:18;19.80;;;7.82;;
65757;SDS011;52495;52.208;5.158;2023-07-02T03:52:45;21.52;;;8.43;;
65757;SDS011;52495;52.208;5.158;2023-07-02T03:55:13;23.15;;;8.15;;
65757;SDS011;52495;52.208;5.158;2023-07-02T03:57:40;20.48;;;8.18;;
65757;SDS011;52495;52.208;5.158;2023-07-02T04:00:08;21.13;;;7.88;;
65757;SDS011;52495;52.208;5.158;2023-07-02T04:02:44;20.13;;;7.93;;
65757;SDS011;52495;52.208;5.158;2023-07-02T04:05:11;21.42;;;7.72;;
65757;SDS011;52495;52.208;5.158;2023-07-02T04:07:38;20.45;;;8.52;;
65757;SDS011;52495;52.208;5.158;2023-07-02T04:10:05;18.58;;;6.95;;
65757;SDS011;52495;52.208;5.158;2023-07-02T04:12:34;21.95;;;7.50;;
65757;SDS011;52495;52.208;5.158;2023-07-02T04:15:01;20.25;;;8.30;;
65757;SDS011;52495;52.208;5.158;2023-07-02T04:17:28;24.58;;;8.10;;
65757;SDS011;52495;52.208;5.158;2023-07-02T04:19:55;19.50;;;7.35;;
65757;SDS011;52495;52.208;5.158;2023-07-02T04:22:22;20.55;;;8.15;;
65757;SDS011;52495;52.208;5.158;2023-07-02T04:24:48;21.77;;;8.75;;
65757;SDS011;52495;52.208;5.158;2023-07-02T04:27:15;26.30;;;8.10;;
65757;SDS011;52495;52.208;5.158;2023-07-02T04:29:44;25.80;;;7.90;;
65757;SDS011;52495;52.208;5.158;2023-07-02T04:32:11;22.00;;;8.15;;
65757;SDS011;52495;52.208;5.158;2023-07-02T04:34:38;19.88;;;8.18;;
65757;SDS011;52495;52.208;5.158;2023-07-02T04:37:06;21.50;;;8.63;;
65757;SDS011;52495;52.208;5.158;2023-07-02T04:39:35;25.88;;;8.60;;
65757;SDS011;52495;52.208;5.158;2023-07-02T04:42:02;21.60;;;8.52;;
65757;SDS011;52495;52.208;5.158;2023-07-02T04:44:29;21.50;;;8.45;;
65757;SDS011;52495;52.208;5.158;2023-07-02T04:46:57;24.27;;;8.57;;
65757;SDS011;52495;52.208;5.158;2023-07-02T04:49:24;22.20;;;7.80;;
65757;SDS011;52495;52.208;5.158;2023-07-02T04:51:51;20.77;;;8.65;;
65757;SDS011;52495;52.208;5.158;2023-07-02T04:54:19;22.95;;;8.30;;
65757;SDS011;52495;52.208;5.158;2023-07-02T04:56:46;18.90;;;7.20;;
65757;SDS011;52495;52.208;5.158;2023-07-02T04:59:13;21.40;;;7.40;;
65757;SDS011;52495;52.208;5.158;2023-07-02T05:01:40;23.77;;;7.10;;
65757;SDS011;52495;52.208;5.158;2023-07-02T05:04:09;27.45;;;8.48;;
65757;SDS011;52495;52.208;5.158;2023-07-02T05:06:37;21.40;;;8.43;;
65757;SDS011;52495;52.208;5.158;2023-07-02T05:09:04;22.75;;;7.55;;
65757;SDS011;52495;52.208;5.158;2023-07-02T05:11:30;21.17;;;7.78;;
65757;SDS011;52495;52.208;5.158;2023-07-02T05:13:57;23.50;;;8.45;;
65757;SDS011;52495;52.208;5.158;2023-07-02T05:16:24;22.30;;;8.15;;
65757;SDS011;52495;52.208;5.158;2023-07-02T05:18:51;17.98;;;6.78;;
65757;SDS011;52495;52.208;5.158;2023-07-02T05:21:19;21.90;;;7.30;;
65757;SDS011;52495;52.208;5.158;2023-07-02T05:23:46;22.23;;;7.82;;
65757;SDS011;52495;52.208;5.158;2023-07-02T05:26:13;20.20;;;7.63;;
65757;SDS011;52495;52.208;5.158;2023-07-02T05:28:40;18.33;;;6.20;;
65757;SDS011;52495;52.208;5.158;2023-07-02T05:31:07;17.45;;;7.90;;
65757;SDS011;52495;52.208;5.158;2023-07-02T05:33:33;22.52;;;6.95;;
65757;SDS011;52495;52.208;5.158;2023-07-02T05:36:00;22.67;;;7.05;;
65757;SDS011;52495;52.208;5.158;2023-07-02T05:38:28;20.38;;;6.78;;
65757;SDS011;52495;52.208;5.158;2023-07-02T05:40:55;18.73;;;5.88;;
65757;SDS011;52495;52.208;5.158;2023-07-02T05:43:22;21.35;;;7.28;;
65757;SDS011;52495;52.208;5.158;2023-07-02T05:45:50;18.25;;;6.80;;
65757;SDS011;52495;52.208;5.158;2023-07-02T05:48:18;20.30;;;7.40;;
65757;SDS011;52495;52.208;5.158;2023-07-02T05:50:44;19.00;;;7.97;;
65757;SDS011;52495;52.208;5.158;2023-07-02T05:53:11;18.73;;;6.28;;
65757;SDS011;52495;52.208;5.158;2023-07-02T05:55:39;18.60;;;6.82;;
65757;SDS011;52495;52.208;5.158;2023-07-02T05:58:07;20.02;;;6.85;;
65757;SDS011;52495;52.208;5.158;2023-07-02T06:00:33;18.95;;;6.35;;
65757;SDS011;52495;52.208;5.158;2023-07-02T06:03:00;17.55;;;6.30;;
65757;SDS011;52495;52.208;5.158;2023-07-02T06:05:27;16.65;;;6.95;;
65757;SDS011;52495;52.208;5.158;2023-07-02T06:07:55;15.23;;;6.25;;
65757;SDS011;52495;52.208;5.158;2023-07-02T06:10:22;16.33;;;6.53;;
65757;SDS011;52495;52.208;5.158;2023-07-02T06:12:50;18.08;;;6.43;;
65757;SDS011;52495;52.208;5.158;2023-07-02T06:15:17;15.40;;;6.30;;
65757;SDS011;52495;52.208;5.158;2023-07-02T06:17:44;21.65;;;6.60;;
65757;SDS011;52495;52.208;5.158;2023-07-02T06:20:11;22.25;;;6.63;;
65757;SDS011;52495;52.208;5.158;2023-07-02T06:22:38;21.38;;;6.25;;
65757;SDS011;52495;52.208;5.158;2023-07-02T06:25:07;20.10;;;6.25;;
65757;SDS011;52495;52.208;5.158;2023-07-02T06:27:34;16.23;;;6.72;;
65757;SDS011;52495;52.208;5.158;2023-07-02T06:30:03;21.65;;;6.97;;
65757;SDS011;52495;52.208;5.158;2023-07-02T06:32:30;20.48;;;6.85;;
65757;SDS011;52495;52.208;5.158;2023-07-02T06:34:57;22.33;;;6.97;;
65757;SDS011;52495;52.208;5.158;2023-07-02T06:37:24;17.35;;;5.95;;
65757;SDS011;52495;52.208;5.158;2023-07-02T06:39:50;14.95;;;6.28;;
65757;SDS011;52495;52.208;5.158;2023-07-02T06:42:17;17.02;;;5.97;;
65757;SDS011;52495;52.208;5.158;2023-07-02T06:44:44;15.00;;;6.03;;
65757;SDS011;52495;52.208;5.158;2023-07-02T06:47:12;17.30;;;6.60;;
65757;SDS011;52495;52.208;5.158;2023-07-02T06:49:39;16.02;;;6.07;;
65757;SDS011;52495;52.208;5.158;2023-07-02T06:52:06;16.08;;;6.60;;
65757;SDS011;52495;52.208;5.158;2023-07-02T06:54:32;19.15;;;6.57;;
65757;SDS011;52495;52.208;5.158;2023-07-02T06:56:59;18.63;;;6.15;;
65757;SDS011;52495;52.208;5.158;2023-07-02T06:59:26;18.85;;;6.05;;
65757;SDS011;52495;52.208;5.158;2023-07-02T07:01:53;20.50;;;6.18;;
65757;SDS011;52495;52.208;5.158;2023-07-02T07:04:21;16.83;;;6.07;;
65757;SDS011;52495;52.208;5.158;2023-07-02T07:06:48;14.80;;;6.00;;
65757;SDS011;52495;52.208;5.158;2023-07-02T07:09:15;15.52;;;5.75;;
65757;SDS011;52495;52.208;5.158;2023-07-02T07:11:43;17.85;;;6.03;;
65757;SDS011;52495;52.208;5.158;2023-07-02T07:14:09;16.55;;;5.50;;
65757;SDS011;52495;52.208;5.158;2023-07-02T07:16:36;19.35;;;5.90;;
65757;SDS011;52495;52.208;5.158;2023-07-02T07:19:04;13.80;;;5.40;;
65757;SDS011;52495;52.208;5.158;2023-07-02T07:21:32;15.15;;;5.40;;
65757;SDS011;52495;52.208;5.158;2023-07-02T07:23:58;14.77;;;5.88;;
65757;SDS011;52495;52.208;5.158;2023-07-02T07:26:25;15.30;;;5.45;;
65757;SDS011;52495;52.208;5.158;2023-07-02T07:28:52;17.75;;;5.15;;
65757;SDS011;52495;52.208;5.158;2023-07-02T07:31:19;12.85;;;5.05;;
65757;SDS011;52495;52.208;5.158;2023-07-02T07:33:46;13.65;;;5.25;;
65757;SDS011;52495;52.208;5.158;2023-07-02T07:36:13;13.32;;;5.47;;
65757;SDS011;52495;52.208;5.158;2023-07-02T07:38:42;16.05;;;6.32;;
65757;SDS011;52495;52.208;5.158;2023-07-02T07:41:09;13.00;;;5.03;;
65757;SDS011;52495;52.208;5.158;2023-07-02T07:43:36;13.32;;;5.10;;
65757;SDS011;52495;52.208;5.158;2023-07-02T07:46:03;15.50;;;5.47;;
65757;SDS011;52495;52.208;5.158;2023-07-02T07:48:30;15.68;;;5.80;;
65757;SDS011;52495;52.208;5.158;2023-07-02T07:50:56;10.93;;;5.20;;
65757;SDS011;52495;52.208;5.158;2023-07-02T07:53:23;18.17;;;6.35;;
65757;SDS011;52495;52.208;5.158;2023-07-02T07:55:51;16.88;;;5.82;;
65757;SDS011;52495;52.208;5.158;2023-07-02T07:58:18;21.00;;;5.97;;
65757;SDS011;52495;52.208;5.158;2023-07-02T08:00:45;16.15;;;5.95;;
65757;SDS011;52495;52.208;5.158;2023-07-02T08:03:12;14.63;;;5.88;;
65757;SDS011;52495;52.208;5.158;2023-07-02T08:05:39;14.70;;;5.60;;
65757;SDS011;52495;52.208;5.158;2023-07-02T08:08:06;15.20;;;6.53;;
65757;SDS011;52495;52.208;5.158;2023-07-02T08:10:33;17.83;;;5.85;;
65757;SDS011;52495;52.208;5.158;2023-07-02T08:13:02;23.83;;;7.85;;
65757;SDS011;52495;52.208;5.158;2023-07-02T08:15:28;14.60;;;5.68;;
65757;SDS011;52495;52.208;5.158;2023-07-02T08:17:55;17.60;;;6.50;;
65757;SDS011;52495;52.208;5.158;2023-07-02T08:20:23;17.33;;;6.18;;
65757;SDS011;52495;52.208;5.158;2023-07-02T08:22:51;14.07;;;5.38;;
65757;SDS011;52495;52.208;5.158;2023-07-02T08:25:18;14.55;;;5.57;;
65757;SDS011;52495;52.208;5.158;2023-07-02T08:27:46;12.45;;;5.53;;
65757;SDS011;52495;52.208;5.158;2023-07-02T08:30:14;12.00;;;5.32;;
65757;SDS011;52495;52.208;5.158;2023-07-02T08:32:42;12.32;;;5.35;;
65757;SDS011;52495;52.208;5.158;2023-07-02T08:35:09;15.98;;;5.80;;
65757;SDS011;52495;52.208;5.158;2023-07-02T08:37:35;18.85;;;5.85;;
65757;SDS011;52495;52.208;5.158;2023-07-02T08:40:02;15.07;;;5.65;;
65757;SDS011;52495;52.208;5.158;2023-07-02T08:42:31;14.18;;;5.82;;
65757;SDS011;52495;52.208;5.158;2023-07-02T08:44:59;12.25;;;5.85;;
65757;SDS011;52495;52.208;5.158;2023-07-02T08:47:27;13.00;;;5.55;;
65757;SDS011;52495;52.208;5.158;2023-07-02T08:49:54;12.13;;;5.38;;
65757;SDS011;52495;52.208;5.158;2023-07-02T08:52:21;18.98;;;5.60;;
65757;SDS011;52495;52.208;5.158;2023-07-02T08:54:48;11.15;;;4.72;;
65757;SDS011;52495;52.208;5.158;2023-07-02T08:57:14;15.32;;;4.78;;
65757;SDS011;52495;52.208;5.158;2023-07-02T08:59:41;16.75;;;5.13;;
65757;SDS011;52495;52.208;5.158;2023-07-02T09:02:08;15.10;;;5.55;;
65757;SDS011;52495;52.208;5.158;2023-07-02T09:04:36;14.00;;;4.65;;
65757;SDS011;52495;52.208;5.158;2023-07-02T09:07:04;14.48;;;4.60;;
65757;SDS011;52495;52.208;5.158;2023-07-02T09:09:31;12.25;;;5.10;;
65757;SDS011;52495;52.208;5.158;2023-07-02T09:11:58;10.43;;;3.97;;
65757;SDS011;52495;52.208;5.158;2023-07-02T09:14:26;11.07;;;4.60;;
65757;SDS011;52495;52.208;5.158;2023-07-02T09:17:03;14.38;;;4.55;;
65757;SDS011;52495;52.208;5.158;2023-07-02T09:19:31;9.68;;;4.57;;
65757;SDS011;52495;52.208;5.158;2023-07-02T09:22:00;13.88;;;4.97;;
65757;SDS011;52495;52.208;5.158;2023-07-02T09:24:28;13.55;;;4.90;;
65757;SDS011;52495;52.208;5.158;2023-07-02T09:26:56;10.85;;;4.13;;
65757;SDS011;52495;52.208;5.158;2023-07-02T09:29:24;13.90;;;4.28;;
65757;SDS011;52495;52.208;5.158;2023-07-02T09:31:53;14.48;;;4.72;;
65757;SDS011;52495;52.208;5.158;2023-07-02T09:34:25;12.45;;;4.32;;
65757;SDS011;52495;52.208;5.158;2023-07-02T09:39:25;9.68;;;3.92;;
65757;SDS011;52495;52.208;5.158;2023-07-02T09:41:53;7.20;;;4.18;;
65757;SDS011;52495;52.208;5.158;2023-07-02T09:44:21;8.43;;;3.85;;
65757;SDS011;52495;52.208;5.158;2023-07-02T09:46:53;11.93;;;4.63;;
65757;SDS011;52495;52.208;5.158;2023-07-02T09:49:24;9.95;;;3.45;;
65757;SDS011;52495;52.208;5.158;2023-07-02T09:51:53;9.45;;;4.05;;
65757;SDS011;52495;52.208;5.158;2023-07-02T09:54:21;11.57;;;3.88;;
65757;SDS011;52495;52.208;5.158;2023-07-02T09:56:48;9.13;;;3.67;;
65757;SDS011;52495;52.208;5.158;2023-07-02T09:59:15;14.43;;;3.60;;
65757;SDS011;52495;52.208;5.158;2023-07-02T10:01:42;9.07;;;3.38;;
65757;SDS011;52495;52.208;5.158;2023-07-02T10:04:12;9.80;;;4.20;;
65757;SDS011;52495;52.208;5.158;2023-07-02T10:06:46;11.80;;;4.20;;
65757;SDS011;52495;52.208;5.158;2023-07-02T10:09:14;9.45;;;3.85;;
65757;SDS011;52495;52.208;5.158;2023-07-02T10:11:42;7.00;;;3.42;;
65757;SDS011;52495;52.208;5.158;2023-07-02T10:14:10;9.40;;;3.40;;
65757;SDS011;52495;52.208;5.158;2023-07-02T10:16:50;10.90;;;3.60;;
65757;SDS011;52495;52.208;5.158;2023-07-02T10:19:17;9.60;;;3.90;;
65757;SDS011;52495;52.208;5.158;2023-07-02T10:21:45;9.85;;;3.58;;
65757;SDS011;52495;52.208;5.158;2023-07-02T10:24:14;9.10;;;3.33;;
65757;SDS011;52495;52.208;5.158;2023-07-02T10:26:53;10.45;;;3.40;;
65757;SDS011;52495;52.208;5.158;2023-07-02T10:29:22;8.05;;;2.85;;
65757;SDS011;52495;52.208;5.158;2023-07-02T10:31:49;10.70;;;3.80;;
65757;SDS011;52495;52.208;5.158;2023-07-02T10:34:16;9.50;;;3.40;;
65757;SDS011;52495;52.208;5.158;2023-07-02T10:36:54;8.73;;;3.00;;
65757;SDS011;52495;52.208;5.158;2023-07-02T10:39:21;12.27;;;3.60;;
65757;SDS011;52495;52.208;5.158;2023-07-02T10:41:48;10.10;;;3.38;;
65757;SDS011;52495;52.208;5.158;2023-07-02T10:44:17;10.50;;;3.08;;
65757;SDS011;52495;52.208;5.158;2023-07-02T10:46:44;11.07;;;3.53;;
65757;SDS011;52495;52.208;5.158;2023-07-02T10:49:11;11.43;;;4.13;;
65757;SDS011;52495;52.208;5.158;2023-07-02T10:51:38;10.00;;;4.65;;
65757;SDS011;52495;52.208;5.158;2023-07-02T10:54:05;9.23;;;3.90;;
65757;SDS011;52495;52.208;5.158;2023-07-02T10:56:32;8.88;;;3.80;;
65757;SDS011;52495;52.208;5.158;2023-07-02T10:58:59;9.73;;;3.35;;
65757;SDS011;52495;52.208;5.158;2023-07-02T11:01:27;9.48;;;3.78;;
65757;SDS011;52495;52.208;5.158;2023-07-02T11:03:56;8.40;;;3.85;;
65757;SDS011;52495;52.208;5.158;2023-07-02T11:06:24;9.10;;;4.78;;
65757;SDS011;52495;52.208;5.158;2023-07-02T11:08:52;9.13;;;3.78;;
65757;SDS011;52495;52.208;5.158;2023-07-02T11:11:20;9.60;;;3.90;;
65757;SDS011;52495;52.208;5.158;2023-07-02T11:13:48;7.95;;;3.78;;
65757;SDS011;52495;52.208;5.158;2023-07-02T11:16:19;7.40;;;3.70;;
65757;SDS011;52495;52.208;5.158;2023-07-02T11:18:51;9.85;;;4.18;;
65757;SDS011;52495;52.208;5.158;2023-07-02T11:21:18;8.52;;;4.18;;
65757;SDS011;52495;52.208;5.158;2023-07-02T11:23:45;8.82;;;4.32;;
65757;SDS011;52495;52.208;5.158;2023-07-02T11:26:12;9.98;;;4.60;;
65757;SDS011;52495;52.208;5.158;2023-07-02T11:28:47;9.00;;;4.18;;
65757;SDS011;52495;52.208;5.158;2023-07-02T11:31:25;8.50;;;4.10;;
65757;SDS011;52495;52.208;5.158;2023-07-02T11:33:54;10.48;;;4.20;;
65757;SDS011;52495;52.208;5.158;2023-07-02T11:36:22;9.70;;;4.13;;
65757;SDS011;52495;52.208;5.158;2023-07-02T11:38:50;8.52;;;3.80;;
65757;SDS011;52495;52.208;5.158;2023-07-02T11:41:18;9.25;;;4.47;;
65757;SDS011;52495;52.208;5.158;2023-07-02T11:43:46;11.95;;;4.57;;
65757;SDS011;52495;52.208;5.158;2023-07-02T11:46:13;9.48;;;4.30;;
65757;SDS011;52495;52.208;5.158;2023-07-02T11:48:40;9.85;;;4.10;;
65757;SDS011;52495;52.208;5.158;2023-07-02T11:51:09;11.13;;;4.28;;
65757;SDS011;52495;52.208;5.158;2023-07-02T11:53:36;11.70;;;4.70;;
65757;SDS011;52495;52.208;5.158;2023-07-02T11:56:02;9.27;;;4.63;;
65757;SDS011;52495;52.208;5.158;2023-07-02T11:58:29;7.78;;;3.75;;
65757;SDS011;52495;52.208;5.158;2023-07-02T12:00:56;6.75;;;3.60;;
65757;SDS011;52495;52.208;5.158;2023-07-02T12:03:23;10.23;;;4.45;;
65757;SDS011;52495;52.208;5.158;2023-07-02T12:05:50;10.27;;;4.18;;
65757;SDS011;52495;52.208;5.158;2023-07-02T12:08:18;8.57;;;3.85;;
65757;SDS011;52495;52.208;5.158;2023-07-02T12:10:45;9.13;;;3.90;;
65757;SDS011;52495;52.208;5.158;2023-07-02T12:13:12;8.32;;;4.10;;
65757;SDS011;52495;52.208;5.158;2023-07-02T12:15:39;7.75;;;3.42;;
65757;SDS011;52495;52.208;5.158;2023-07-02T12:18:06;9.52;;;3.92;;
65757;SDS011;52495;52.208;5.158;2023-07-02T12:20:33;9.43;;;3.97;;
65757;SDS011;52495;52.208;5.158;2023-07-02T12:23:00;8.18;;;3.83;;
65757;SDS011;52495;52.208;5.158;2023-07-02T12:25:28;8.23;;;3.90;;
65757;SDS011;52495;52.208;5.158;2023-07-02T12:27:55;9.73;;;3.90;;
65757;SDS011;52495;52.208;5.158;2023-07-02T12:30:22;7.80;;;4.38;;
65757;SDS011;52495;52.208;5.158;2023-07-02T12:32:48;8.65;;;4.00;;
65757;SDS011;52495;52.208;5.158;2023-07-02T12:35:15;8.70;;;3.75;;
65757;SDS011;52495;52.208;5.158;2023-07-02T12:37:42;9.73;;;3.80;;
65757;SDS011;52495;52.208;5.158;2023-07-02T12:40:10;8.30;;;3.90;;
65757;SDS011;52495;52.208;5.158;2023-07-02T12:42:40;9.43;;;4.32;;
65757;SDS011;52495;52.208;5.158;2023-07-02T12:45:08;9.00;;;4.10;;
65757;SDS011;52495;52.208;5.158;2023-07-02T12:47:35;8.57;;;3.90;;
65757;SDS011;52495;52.208;5.158;2023-07-02T12:50:02;8.73;;;4.03;;
65757;SDS011;52495;52.208;5.158;2023-07-02T12:52:30;9.93;;;4.25;;
65757;SDS011;52495;52.208;5.158;2023-07-02T12:54:57;10.55;;;4.00;;
65757;SDS011;52495;52.208;5.158;2023-07-02T12:57:24;7.55;;;4.60;;
65757;SDS011;52495;52.208;5.158;2023-07-02T12:59:53;9.90;;;4.35;;
65757;SDS011;52495;52.208;5.158;2023-07-02T13:02:21;9.80;;;3.95;;
65757;SDS011;52495;52.208;5.158;2023-07-02T13:04:58;8.23;;;3.47;;
65757;SDS011;52495;52.208;5.158;2023-07-02T13:07:25;8.48;;;4.53;;
65757;SDS011;52495;52.208;5.158;2023-07-02T13:09:53;10.55;;;4.55;;
65757;SDS011;52495;52.208;5.158;2023-07-02T13:12:20;10.75;;;4.55;;
65757;SDS011;52495;52.208;5.158;2023-07-02T13:14:46;8.65;;;4.40;;
65757;SDS011;52495;52.208;5.158;2023-07-02T13:17:15;10.55;;;4.20;;
65757;SDS011;52495;52.208;5.158;2023-07-02T13:19:41;8.48;;;4.32;;
65757;SDS011;52495;52.208;5.158;2023-07-02T13:22:08;10.32;;;5.07;;
65757;SDS011;52495;52.208;5.158;2023-07-02T13:24:36;13.55;;;4.95;;
65757;SDS011;52495;52.208;5.158;2023-07-02T13:27:06;11.57;;;4.75;;
65757;SDS011;52495;52.208;5.158;2023-07-02T13:29:37;9.20;;;4.50;;
65757;SDS011;52495;52.208;5.158;2023-07-02T13:32:05;13.50;;;5.35;;
65757;SDS011;52495;52.208;5.158;2023-07-02T13:34:34;10.02;;;4.47;;
65757;SDS011;52495;52.208;5.158;2023-07-02T13:37:01;8.18;;;4.30;;
65757;SDS011;52495;52.208;5.158;2023-07-02T13:39:28;9.95;;;4.90;;
65757;SDS011;52495;52.208;5.158;2023-07-02T13:41:55;10.68;;;4.75;;
65757;SDS011;52495;52.208;5.158;2023-07-02T13:44:22;10.40;;;6.00;;
65757;SDS011;52495;52.208;5.158;2023-07-02T13:46:49;6.82;;;4.57;;
65757;SDS011;52495;52.208;5.158;2023-07-02T13:49:16;12.38;;;5.40;;
65757;SDS011;52495;52.208;5.158;2023-07-02T13:51:44;10.00;;;4.68;;
65757;SDS011;52495;52.208;5.158;2023-07-02T13:54:11;12.57;;;5.28;;
65757;SDS011;52495;52.208;5.158;2023-07-02T13:56:39;10.98;;;5.10;;
65757;SDS011;52495;52.208;5.158;2023-07-02T13:59:07;8.27;;;4.90;;
65757;SDS011;52495;52.208;5.158;2023-07-02T14:01:34;9.93;;;5.35;;
65757;SDS011;52495;52.208;5.158;2023-07-02T14:04:01;10.55;;;4.93;;
65757;SDS011;52495;52.208;5.158;2023-07-02T14:06:29;12.85;;;4.82;;
65757;SDS011;52495;52.208;5.158;2023-07-02T14:08:59;10.15;;;4.75;;
65757;SDS011;52495;52.208;5.158;2023-07-02T14:11:26;10.73;;;5.03;;
65757;SDS011;52495;52.208;5.158;2023-07-02T14:13:53;10.07;;;4.40;;
65757;SDS011;52495;52.208;5.158;2023-07-02T14:16:21;10.30;;;4.75;;
65757;SDS011;52495;52.208;5.158;2023-07-02T14:18:49;9.35;;;4.03;;
65757;SDS011;52495;52.208;5.158;2023-07-02T14:21:16;9.43;;;4.63;;
65757;SDS011;52495;52.208;5.158;2023-07-02T14:23:43;10.52;;;4.90;;
65757;SDS011;52495;52.208;5.158;2023-07-02T14:26:10;10.93;;;4.80;;
65757;SDS011;52495;52.208;5.158;2023-07-02T14:28:37;8.48;;;4.32;;
65757;SDS011;52495;52.208;5.158;2023-07-02T14:31:04;9.30;;;4.18;;
65757;SDS011;52495;52.208;5.158;2023-07-02T14:33:35;9.05;;;4.60;;
65757;SDS011;52495;52.208;5.158;2023-07-02T14:36:03;8.73;;;4.60;;
65757;SDS011;52495;52.208;5.158;2023-07-02T14:38:30;9.10;;;4.55;;
65757;SDS011;52495;52.208;5.158;2023-07-02T14:40:58;10.90;;;4.80;;
65757;SDS011;52495;52.208;5.158;2023-07-02T14:43:26;9.25;;;4.25;;